Terminal Aerodrome Forecast
Issued by NWS Pueblo, CO

Home | Current Version | Previous Version | Text Only | Print | Product List | Glossary On
Versions: 1 2 3 4 5 6 7 8 9 10 11 12 13 14 15 16 17 18 19 20 21
000
FTUS45 KPUB 240537
TAFALS
TAF
KALS 240537Z 2406/2506 13008KT P6SM FEW030
     FM241100 VRB04KT P6SM BKN020
     FM241400 VRB04KT P6SM FEW020 SCT100
     FM242000 27013KT P6SM SCT100
     FM250100 11015KT P6SM SCT100=

USA.gov is the U.S. government's official web portal to all federal, state and local government web resources and services.